sensor_id;sensor_type;location;lat;lon;timestamp;pressure;altitude;pressure_sealevel;temperature;humidity
63194;BME280;49289;51.670;5.624;2023-04-01T00:01:31;99261.27;;;14.21;74.71
63194;BME280;49289;51.670;5.624;2023-04-01T00:03:18;99274.63;;;14.55;74.45
63194;BME280;49289;51.670;5.624;2023-04-01T00:05:05;99271.41;;;14.53;74.88
63194;BME280;49289;51.670;5.624;2023-04-01T00:06:52;99276.45;;;14.50;74.55
63194;BME280;49289;51.670;5.624;2023-04-01T00:08:39;99256.30;;;14.74;74.23
63194;BME280;49289;51.670;5.624;2023-04-01T00:10:26;99265.71;;;14.56;73.96
63194;BME280;49289;51.670;5.624;2023-04-01T00:12:13;99260.94;;;14.20;74.42
63194;BME280;49289;51.670;5.624;2023-04-01T00:14:00;99257.38;;;14.49;74.30
63194;BME280;49289;51.670;5.624;2023-04-01T00:15:47;99281.02;;;14.39;75.05
63194;BME280;49289;51.670;5.624;2023-04-01T00:17:34;99280.56;;;14.55;74.51
63194;BME280;49289;51.670;5.624;2023-04-01T00:19:21;99283.05;;;14.56;74.56
63194;BME280;49289;51.670;5.624;2023-04-01T00:21:09;99249.97;;;14.20;74.42
63194;BME280;49289;51.670;5.624;2023-04-01T00:22:57;99262.73;;;14.58;74.42
63194;BME280;49289;51.670;5.624;2023-04-01T00:24:44;99263.80;;;14.88;73.42
63194;BME280;49289;51.670;5.624;2023-04-01T00:26:31;99259.69;;;14.71;73.73
63194;BME280;49289;51.670;5.624;2023-04-01T00:28:19;99278.91;;;14.76;74.21
63194;BME280;49289;51.670;5.624;2023-04-01T00:30:05;99200.01;;;14.26;74.22
63194;BME280;49289;51.670;5.624;2023-04-01T00:31:52;99262.51;;;14.45;74.27
63194;BME280;49289;51.670;5.624;2023-04-01T00:33:39;99267.91;;;14.25;74.71
63194;BME280;49289;51.670;5.624;2023-04-01T00:35:26;99267.16;;;14.39;75.08
63194;BME280;49289;51.670;5.624;2023-04-01T00:37:13;99281.89;;;14.57;75.45
63194;BME280;49289;51.670;5.624;2023-04-01T00:39:00;99286.19;;;14.54;75.23
63194;BME280;49289;51.670;5.624;2023-04-01T00:40:47;99271.36;;;14.36;75.10
63194;BME280;49289;51.670;5.624;2023-04-01T00:42:34;99291.87;;;14.81;74.56
63194;BME280;49289;51.670;5.624;2023-04-01T00:44:28;99290.06;;;14.58;74.87
63194;BME280;49289;51.670;5.624;2023-04-01T00:46:15;99290.96;;;14.80;73.61
63194;BME280;49289;51.670;5.624;2023-04-01T00:48:03;99280.96;;;14.97;73.30
63194;BME280;49289;51.670;5.624;2023-04-01T00:49:51;99288.78;;;15.22;72.87
63194;BME280;49289;51.670;5.624;2023-04-01T00:51:38;99287.91;;;15.04;72.99
63194;BME280;49289;51.670;5.624;2023-04-01T00:53:26;99288.67;;;15.21;71.94
63194;BME280;49289;51.670;5.624;2023-04-01T00:55:14;99275.30;;;14.48;73.26
63194;BME280;49289;51.670;5.624;2023-04-01T00:57:04;99301.70;;;14.43;74.48
63194;BME280;49289;51.670;5.624;2023-04-01T00:58:51;99282.55;;;14.76;73.84
63194;BME280;49289;51.670;5.624;2023-04-01T01:00:36;99302.28;;;14.89;73.81
63194;BME280;49289;51.670;5.624;2023-04-01T01:02:23;99282.79;;;14.79;73.50
63194;BME280;49289;51.670;5.624;2023-04-01T01:04:19;99287.17;;;14.54;74.14
63194;BME280;49289;51.670;5.624;2023-04-01T01:06:21;99300.65;;;15.31;73.11
63194;BME280;49289;51.670;5.624;2023-04-01T01:08:09;99303.33;;;15.13;72.19
63194;BME280;49289;51.670;5.624;2023-04-01T01:09:59;99291.31;;;14.69;72.95
63194;BME280;49289;51.670;5.624;2023-04-01T01:11:48;99286.89;;;15.13;72.68
63194;BME280;49289;51.670;5.624;2023-04-01T01:13:36;99307.23;;;14.92;72.77
63194;BME280;49289;51.670;5.624;2023-04-01T01:15:25;99293.20;;;14.52;73.43
63194;BME280;49289;51.670;5.624;2023-04-01T01:17:13;99290.47;;;14.54;73.79
63194;BME280;49289;51.670;5.624;2023-04-01T01:19:01;99293.92;;;15.40;72.51
63194;BME280;49289;51.670;5.624;2023-04-01T01:25:47;99307.82;;;14.71;73.21
63194;BME280;49289;51.670;5.624;2023-04-01T01:27:33;99293.27;;;15.08;72.67
63194;BME280;49289;51.670;5.624;2023-04-01T01:29:27;99310.38;;;15.38;72.31
63194;BME280;49289;51.670;5.624;2023-04-01T01:31:15;99298.97;;;14.96;72.51
63194;BME280;49289;51.670;5.624;2023-04-01T01:35:30;99319.54;;;14.73;73.35
63194;BME280;49289;51.670;5.624;2023-04-01T01:37:18;99302.71;;;14.67;73.62
63194;BME280;49289;51.670;5.624;2023-04-01T01:39:06;99300.06;;;14.86;73.42
63194;BME280;49289;51.670;5.624;2023-04-01T01:40:53;99317.52;;;15.26;72.73
63194;BME280;49289;51.670;5.624;2023-04-01T01:42:43;99320.92;;;15.14;72.90
63194;BME280;49289;51.670;5.624;2023-04-01T01:44:29;99329.55;;;15.03;72.64
63194;BME280;49289;51.670;5.624;2023-04-01T01:46:18;99332.34;;;14.95;73.04
63194;BME280;49289;51.670;5.624;2023-04-01T01:48:04;99304.33;;;15.00;72.34
63194;BME280;49289;51.670;5.624;2023-04-01T01:49:51;99318.23;;;14.85;72.74
63194;BME280;49289;51.670;5.624;2023-04-01T01:51:38;99322.51;;;14.78;72.74
63194;BME280;49289;51.670;5.624;2023-04-01T01:53:25;99322.42;;;14.80;73.40
63194;BME280;49289;51.670;5.624;2023-04-01T01:57:13;99320.91;;;15.17;72.34
63194;BME280;49289;51.670;5.624;2023-04-01T01:59:02;99334.50;;;15.38;71.96
63194;BME280;49289;51.670;5.624;2023-04-01T02:00:50;99254.58;;;14.51;72.32
63194;BME280;49289;51.670;5.624;2023-04-01T02:02:38;99340.45;;;15.02;72.46
63194;BME280;49289;51.670;5.624;2023-04-01T02:04:26;99341.16;;;14.99;72.84
63194;BME280;49289;51.670;5.624;2023-04-01T02:06:14;99327.12;;;14.81;73.39
63194;BME280;49289;51.670;5.624;2023-04-01T02:08:02;99340.91;;;15.16;73.07
63194;BME280;49289;51.670;5.624;2023-04-01T02:09:49;99321.70;;;14.63;73.14
63194;BME280;49289;51.670;5.624;2023-04-01T02:11:38;99329.94;;;14.80;73.47
63194;BME280;49289;51.670;5.624;2023-04-01T02:13:27;99327.15;;;14.86;73.53
63194;BME280;49289;51.670;5.624;2023-04-01T02:15:13;99348.61;;;14.71;73.01
63194;BME280;49289;51.670;5.624;2023-04-01T02:17:03;99353.45;;;14.60;74.00
63194;BME280;49289;51.670;5.624;2023-04-01T02:18:49;99333.58;;;14.92;74.01
63194;BME280;49289;51.670;5.624;2023-04-01T02:20:36;99349.92;;;14.70;74.20
63194;BME280;49289;51.670;5.624;2023-04-01T02:22:24;99351.74;;;15.12;74.41
63194;BME280;49289;51.670;5.624;2023-04-01T02:24:12;99346.11;;;15.29;73.25
63194;BME280;49289;51.670;5.624;2023-04-01T02:25:58;99330.98;;;15.17;72.77
63194;BME280;49289;51.670;5.624;2023-04-01T02:27:45;99339.27;;;14.34;73.69
63194;BME280;49289;51.670;5.624;2023-04-01T02:29:32;99341.41;;;14.27;75.03
63194;BME280;49289;51.670;5.624;2023-04-01T02:31:20;99337.02;;;14.58;74.59
63194;BME280;49289;51.670;5.624;2023-04-01T02:33:07;99322.59;;;14.48;74.31
63194;BME280;49289;51.670;5.624;2023-04-01T02:34:54;99359.33;;;14.39;74.88
63194;BME280;49289;51.670;5.624;2023-04-01T02:36:41;99354.36;;;14.57;74.86
63194;BME280;49289;51.670;5.624;2023-04-01T02:38:28;99344.28;;;14.60;74.15
63194;BME280;49289;51.670;5.624;2023-04-01T02:40:16;99346.69;;;14.46;74.43
63194;BME280;49289;51.670;5.624;2023-04-01T02:42:03;99361.00;;;14.94;73.53
63194;BME280;49289;51.670;5.624;2023-04-01T02:43:50;99345.30;;;15.08;72.80
63194;BME280;49289;51.670;5.624;2023-04-01T02:45:37;99355.68;;;15.33;72.20
63194;BME280;49289;51.670;5.624;2023-04-01T02:47:24;99340.13;;;15.38;71.56
63194;BME280;49289;51.670;5.624;2023-04-01T02:49:11;99352.31;;;14.74;72.34
63194;BME280;49289;51.670;5.624;2023-04-01T02:50:58;99370.95;;;14.54;73.57
63194;BME280;49289;51.670;5.624;2023-04-01T02:52:46;99353.99;;;14.43;73.75
63194;BME280;49289;51.670;5.624;2023-04-01T02:54:34;99371.73;;;14.92;73.44
63194;BME280;49289;51.670;5.624;2023-04-01T02:56:22;99372.14;;;14.97;72.35
63194;BME280;49289;51.670;5.624;2023-04-01T02:58:10;99374.00;;;14.46;73.65
63194;BME280;49289;51.670;5.624;2023-04-01T02:59:57;99376.33;;;13.89;74.97
63194;BME280;49289;51.670;5.624;2023-04-01T03:01:45;99355.13;;;14.12;75.11
63194;BME280;49289;51.670;5.624;2023-04-01T03:03:33;99376.55;;;14.25;75.29
63194;BME280;49289;51.670;5.624;2023-04-01T03:05:21;99373.88;;;14.19;74.97
63194;BME280;49289;51.670;5.624;2023-04-01T03:07:09;99379.70;;;14.60;74.65
63194;BME280;49289;51.670;5.624;2023-04-01T03:08:57;99360.27;;;14.83;73.57
63194;BME280;49289;51.670;5.624;2023-04-01T03:10:45;99377.25;;;14.69;72.83
63194;BME280;49289;51.670;5.624;2023-04-01T03:12:32;99386.06;;;14.38;74.04
63194;BME280;49289;51.670;5.624;2023-04-01T03:14:19;99367.58;;;14.36;74.07
63194;BME280;49289;51.670;5.624;2023-04-01T03:16:06;99382.20;;;14.73;73.49
63194;BME280;49289;51.670;5.624;2023-04-01T03:17:53;99383.28;;;14.79;73.21
63194;BME280;49289;51.670;5.624;2023-04-01T03:19:40;99364.76;;;14.56;72.99
63194;BME280;49289;51.670;5.624;2023-04-01T03:21:27;99368.41;;;14.09;74.31
63194;BME280;49289;51.670;5.624;2023-04-01T03:23:14;99369.08;;;14.14;74.78
63194;BME280;49289;51.670;5.624;2023-04-01T03:25:01;99385.02;;;14.21;74.24
63194;BME280;49289;51.670;5.624;2023-04-01T03:26:48;99367.73;;;14.27;74.30
63194;BME280;49289;51.670;5.624;2023-04-01T03:28:35;99385.60;;;14.42;74.32
63194;BME280;49289;51.670;5.624;2023-04-01T03:30:23;99374.95;;;14.43;73.82
63194;BME280;49289;51.670;5.624;2023-04-01T03:32:11;99384.59;;;14.14;74.21
63194;BME280;49289;51.670;5.624;2023-04-01T03:33:59;99377.40;;;14.39;74.64
63194;BME280;49289;51.670;5.624;2023-04-01T03:35:47;99395.17;;;14.42;73.95
63194;BME280;49289;51.670;5.624;2023-04-01T03:37:36;99374.95;;;15.01;73.11
63194;BME280;49289;51.670;5.624;2023-04-01T03:39:24;99375.30;;;14.86;72.50
63194;BME280;49289;51.670;5.624;2023-04-01T03:41:12;99393.28;;;15.21;72.24
63194;BME280;49289;51.670;5.624;2023-04-01T03:43:58;99393.27;;;14.75;71.82
63194;BME280;49289;51.670;5.624;2023-04-01T03:45:49;99372.22;;;14.97;72.23
63194;BME280;49289;51.670;5.624;2023-04-01T03:47:36;99395.53;;;15.26;71.66
63194;BME280;49289;51.670;5.624;2023-04-01T03:49:24;99397.50;;;14.96;71.97
63194;BME280;49289;51.670;5.624;2023-04-01T03:51:13;99397.45;;;14.55;73.00
63194;BME280;49289;51.670;5.624;2023-04-01T03:53:01;99385.15;;;14.60;72.99
63194;BME280;49289;51.670;5.624;2023-04-01T03:54:48;99402.38;;;14.03;74.12
63194;BME280;49289;51.670;5.624;2023-04-01T03:56:37;99402.88;;;14.44;73.96
63194;BME280;49289;51.670;5.624;2023-04-01T03:58:24;99398.14;;;14.63;73.55
63194;BME280;49289;51.670;5.624;2023-04-01T04:00:13;99386.30;;;14.58;73.00
63194;BME280;49289;51.670;5.624;2023-04-01T04:02:01;99405.33;;;14.73;73.06
63194;BME280;49289;51.670;5.624;2023-04-01T04:03:48;99390.10;;;14.36;73.41
63194;BME280;49289;51.670;5.624;2023-04-01T04:05:35;99390.09;;;14.46;73.46
63194;BME280;49289;51.670;5.624;2023-04-01T04:07:23;99409.20;;;14.42;73.52
63194;BME280;49289;51.670;5.624;2023-04-01T04:09:10;99394.15;;;13.91;74.68
63194;BME280;49289;51.670;5.624;2023-04-01T04:11:00;99412.22;;;14.15;74.78
63194;BME280;49289;51.670;5.624;2023-04-01T04:12:48;99396.55;;;14.16;74.47
63194;BME280;49289;51.670;5.624;2023-04-01T04:14:35;99407.88;;;13.82;75.02
63194;BME280;49289;51.670;5.624;2023-04-01T04:16:22;99417.52;;;14.01;75.39
63194;BME280;49289;51.670;5.624;2023-04-01T04:18:11;99405.87;;;14.16;74.40
63194;BME280;49289;51.670;5.624;2023-04-01T04:19:58;99403.80;;;13.93;74.94
63194;BME280;49289;51.670;5.624;2023-04-01T04:21:46;99404.95;;;14.35;74.27
63194;BME280;49289;51.670;5.624;2023-04-01T04:23:34;99404.78;;;14.49;73.36
63194;BME280;49289;51.670;5.624;2023-04-01T04:25:22;99421.95;;;14.45;73.22
63194;BME280;49289;51.670;5.624;2023-04-01T04:27:11;99409.58;;;13.96;73.54
63194;BME280;49289;51.670;5.624;2023-04-01T04:28:59;99413.25;;;13.61;74.96
63194;BME280;49289;51.670;5.624;2023-04-01T04:30:47;99431.09;;;13.81;75.88
63194;BME280;49289;51.670;5.624;2023-04-01T04:32:35;99440.09;;;13.56;75.52
63194;BME280;49289;51.670;5.624;2023-04-01T04:34:23;99436.87;;;13.64;75.94
63194;BME280;49289;51.670;5.624;2023-04-01T04:36:12;99436.54;;;14.27;75.06
63194;BME280;49289;51.670;5.624;2023-04-01T04:37:59;99432.11;;;14.15;74.63
63194;BME280;49289;51.670;5.624;2023-04-01T04:39:48;99435.56;;;13.98;74.58
63194;BME280;49289;51.670;5.624;2023-04-01T04:41:37;99437.19;;;14.05;74.45
63194;BME280;49289;51.670;5.624;2023-04-01T04:43:24;99436.56;;;13.99;74.67
63194;BME280;49289;51.670;5.624;2023-04-01T04:45:12;99420.28;;;14.07;74.57
63194;BME280;49289;51.670;5.624;2023-04-01T04:46:59;99436.89;;;14.00;74.06
63194;BME280;49289;51.670;5.624;2023-04-01T04:48:47;99441.58;;;14.10;74.43
63194;BME280;49289;51.670;5.624;2023-04-01T04:50:35;99426.45;;;13.61;75.37
63194;BME280;49289;51.670;5.624;2023-04-01T04:52:23;99424.49;;;13.92;75.21
63194;BME280;49289;51.670;5.624;2023-04-01T04:54:11;99443.95;;;13.92;74.60
63194;BME280;49289;51.670;5.624;2023-04-01T04:55:59;99445.91;;;13.87;74.98
63194;BME280;49289;51.670;5.624;2023-04-01T04:57:47;99442.97;;;13.54;75.22
63194;BME280;49289;51.670;5.624;2023-04-01T04:59:36;99438.09;;;14.03;74.54
63194;BME280;49289;51.670;5.624;2023-04-01T05:01:24;99436.13;;;13.53;74.78
63194;BME280;49289;51.670;5.624;2023-04-01T05:03:12;99438.67;;;13.92;74.89
63194;BME280;49289;51.670;5.624;2023-04-01T05:05:00;99463.55;;;13.84;75.19
63194;BME280;49289;51.670;5.624;2023-04-01T05:06:48;99459.96;;;14.08;74.32
63194;BME280;49289;51.670;5.624;2023-04-01T05:08:35;99450.06;;;13.96;73.67
63194;BME280;49289;51.670;5.624;2023-04-01T05:10:23;99468.02;;;13.88;74.18
63194;BME280;49289;51.670;5.624;2023-04-01T05:12:10;99453.14;;;13.82;74.91
63194;BME280;49289;51.670;5.624;2023-04-01T05:13:57;99476.23;;;13.73;75.26
63194;BME280;49289;51.670;5.624;2023-04-01T05:15:44;99462.89;;;13.85;75.12
63194;BME280;49289;51.670;5.624;2023-04-01T05:17:31;99459.55;;;13.65;75.72
63194;BME280;49289;51.670;5.624;2023-04-01T05:19:19;99482.16;;;13.70;75.54
63194;BME280;49289;51.670;5.624;2023-04-01T05:21:07;99490.68;;;13.53;76.39
63194;BME280;49289;51.670;5.624;2023-04-01T05:22:55;99485.27;;;13.94;75.71
63194;BME280;49289;51.670;5.624;2023-04-01T05:24:42;99488.97;;;13.64;76.12
63194;BME280;49289;51.670;5.624;2023-04-01T05:26:30;99493.41;;;13.77;76.14
63194;BME280;49289;51.670;5.624;2023-04-01T05:28:19;99500.14;;;13.83;75.76
63194;BME280;49289;51.670;5.624;2023-04-01T05:30:07;99503.98;;;14.03;75.82
63194;BME280;49289;51.670;5.624;2023-04-01T05:31:55;99487.98;;;13.91;75.67
63194;BME280;49289;51.670;5.624;2023-04-01T05:33:43;99502.19;;;14.07;75.30
63194;BME280;49289;51.670;5.624;2023-04-01T05:35:31;99505.18;;;13.75;75.80
63194;BME280;49289;51.670;5.624;2023-04-01T05:37:18;99500.34;;;14.21;75.11
63194;BME280;49289;51.670;5.624;2023-04-01T05:39:07;99507.56;;;14.10;74.66
63194;BME280;49289;51.670;5.624;2023-04-01T05:40:57;99498.11;;;13.55;75.67
63194;BME280;49289;51.670;5.624;2023-04-01T05:42:41;99496.02;;;14.10;75.64
63194;BME280;49289;51.670;5.624;2023-04-01T05:44:28;99494.52;;;14.09;74.61
63194;BME280;49289;51.670;5.624;2023-04-01T05:46:15;99515.44;;;14.21;74.47
63194;BME280;49289;51.670;5.624;2023-04-01T05:48:02;99505.44;;;13.85;75.15
63194;BME280;49289;51.670;5.624;2023-04-01T05:49:49;99507.63;;;14.06;75.19
63194;BME280;49289;51.670;5.624;2023-04-01T05:51:36;99513.41;;;14.09;74.52
63194;BME280;49289;51.670;5.624;2023-04-01T05:53:23;99530.23;;;13.74;75.80
63194;BME280;49289;51.670;5.624;2023-04-01T05:55:11;99532.06;;;14.00;76.21
63194;BME280;49289;51.670;5.624;2023-04-01T05:56:58;99531.11;;;13.69;76.63
63194;BME280;49289;51.670;5.624;2023-04-01T05:58:45;99519.63;;;14.15;75.63
63194;BME280;49289;51.670;5.624;2023-04-01T06:00:32;99523.83;;;13.56;76.73
63194;BME280;49289;51.670;5.624;2023-04-01T06:02:21;99524.61;;;13.70;76.30
63194;BME280;49289;51.670;5.624;2023-04-01T06:04:09;99526.70;;;13.99;76.71
63194;BME280;49289;51.670;5.624;2023-04-01T06:05:55;99544.70;;;13.89;76.54
63194;BME280;49289;51.670;5.624;2023-04-01T06:07:43;99550.06;;;13.81;76.63
63194;BME280;49289;51.670;5.624;2023-04-01T06:09:30;99552.63;;;14.29;75.87
63194;BME280;49289;51.670;5.624;2023-04-01T06:11:22;99552.86;;;13.89;76.10
63194;BME280;49289;51.670;5.624;2023-04-01T06:13:12;99558.64;;;13.90;76.82
63194;BME280;49289;51.670;5.624;2023-04-01T06:15:00;99548.23;;;13.87;76.27
63194;BME280;49289;51.670;5.624;2023-04-01T06:16:52;99554.48;;;13.99;76.45
63194;BME280;49289;51.670;5.624;2023-04-01T06:19:05;99566.42;;;14.19;75.71
63194;BME280;49289;51.670;5.624;2023-04-01T06:20:54;99555.16;;;14.40;75.78
63194;BME280;49289;51.670;5.624;2023-04-01T06:22:56;99561.22;;;14.19;75.45
63194;BME280;49289;51.670;5.624;2023-04-01T06:24:54;99578.61;;;13.91;76.42
63194;BME280;49289;51.670;5.624;2023-04-01T06:26:44;99567.01;;;13.82;76.76
63194;BME280;49289;51.670;5.624;2023-04-01T06:28:56;99584.09;;;13.78;77.12
63194;BME280;49289;51.670;5.624;2023-04-01T06:30:44;99587.36;;;14.03;77.19
63194;BME280;49289;51.670;5.624;2023-04-01T06:32:45;99577.06;;;13.96;77.16
63194;BME280;49289;51.670;5.624;2023-04-01T06:34:45;99595.45;;;14.28;77.01
63194;BME280;49289;51.670;5.624;2023-04-01T06:36:26;99596.34;;;13.92;76.46
63194;BME280;49289;51.670;5.624;2023-04-01T06:38:27;99599.73;;;14.47;76.54
63194;BME280;49289;51.670;5.624;2023-04-01T06:40:29;99604.20;;;14.20;76.47
63194;BME280;49289;51.670;5.624;2023-04-01T06:42:36;99599.11;;;14.34;75.72
63194;BME280;49289;51.670;5.624;2023-04-01T06:44:27;99603.45;;;14.17;76.46
63194;BME280;49289;51.670;5.624;2023-04-01T06:46:15;99605.30;;;14.58;76.42
63194;BME280;49289;51.670;5.624;2023-04-01T06:48:10;99607.63;;;14.11;76.65
63194;BME280;49289;51.670;5.624;2023-04-01T06:49:59;99595.17;;;14.13;76.87
63194;BME280;49289;51.670;5.624;2023-04-01T06:51:47;99611.29;;;13.84;77.15
63194;BME280;49289;51.670;5.624;2023-04-01T06:53:35;99616.27;;;14.33;77.14
63194;BME280;49289;51.670;5.624;2023-04-01T06:55:34;99617.17;;;13.87;77.33
63194;BME280;49289;51.670;5.624;2023-04-01T06:57:23;99610.84;;;14.59;76.33
63194;BME280;49289;51.670;5.624;2023-04-01T06:59:12;99600.33;;;14.20;76.03
63194;BME280;49289;51.670;5.624;2023-04-01T07:00:59;99618.72;;;14.27;76.83
63194;BME280;49289;51.670;5.624;2023-04-01T07:02:47;99623.48;;;13.83;77.59
63194;BME280;49289;51.670;5.624;2023-04-01T07:04:33;99610.77;;;13.91;77.38
63194;BME280;49289;51.670;5.624;2023-04-01T07:06:23;99627.05;;;14.27;76.96
63194;BME280;49289;51.670;5.624;2023-04-01T07:08:09;99635.08;;;14.51;76.27
63194;BME280;49289;51.670;5.624;2023-04-01T07:09:57;99618.48;;;14.51;75.89
63194;BME280;49289;51.670;5.624;2023-04-01T07:11:45;99623.70;;;14.11;75.86
63194;BME280;49289;51.670;5.624;2023-04-01T07:13:34;99628.08;;;14.35;75.92
63194;BME280;49289;51.670;5.624;2023-04-01T07:15:26;99631.77;;;13.89;76.37
63194;BME280;49289;51.670;5.624;2023-04-01T07:17:12;99638.05;;;13.62;77.37
63194;BME280;49289;51.670;5.624;2023-04-01T07:18:59;99639.73;;;13.83;77.53
63194;BME280;49289;51.670;5.624;2023-04-01T07:20:45;99633.96;;;14.24;76.77
63194;BME280;49289;51.670;5.624;2023-04-01T07:22:35;99643.47;;;14.47;76.04
63194;BME280;49289;51.670;5.624;2023-04-01T07:24:22;99645.66;;;14.35;75.55
63194;BME280;49289;51.670;5.624;2023-04-01T07:26:19;99664.16;;;14.39;75.27
63194;BME280;49289;51.670;5.624;2023-04-01T07:28:00;99666.48;;;14.26;75.39
63194;BME280;49289;51.670;5.624;2023-04-01T07:29:47;99665.59;;;14.08;76.34
63194;BME280;49289;51.670;5.624;2023-04-01T07:31:45;99647.95;;;13.64;76.67
63194;BME280;49289;51.670;5.624;2023-04-01T07:33:33;99657.97;;;14.15;76.75
63194;BME280;49289;51.670;5.624;2023-04-01T07:35:23;99663.69;;;14.28;76.27
63194;BME280;49289;51.670;5.624;2023-04-01T07:37:12;99680.27;;;14.19;76.31
63194;BME280;49289;51.670;5.624;2023-04-01T07:39:03;99661.45;;;13.88;76.96
63194;BME280;49289;51.670;5.624;2023-04-01T07:40:52;99679.21;;;13.75;77.94
63194;BME280;49289;51.670;5.624;2023-04-01T07:42:41;99685.78;;;14.18;76.54
63194;BME280;49289;51.670;5.624;2023-04-01T07:44:31;99689.84;;;13.74;77.02
63194;BME280;49289;51.670;5.624;2023-04-01T07:46:21;99668.77;;;13.53;77.68
63194;BME280;49289;51.670;5.624;2023-04-01T07:48:13;99675.38;;;13.96;77.29
63194;BME280;49289;51.670;5.624;2023-04-01T07:50:04;99680.73;;;13.69;76.84
63194;BME280;49289;51.670;5.624;2023-04-01T07:51:52;99689.07;;;13.81;76.52
63194;BME280;49289;51.670;5.624;2023-04-01T07:53:40;99697.23;;;13.97;76.41
63194;BME280;49289;51.670;5.624;2023-04-01T07:55:28;99682.30;;;14.14;75.56
63194;BME280;49289;51.670;5.624;2023-04-01T07:57:16;99699.19;;;14.48;75.32
63194;BME280;49289;51.670;5.624;2023-04-01T07:59:05;99704.34;;;14.25;75.00
63194;BME280;49289;51.670;5.624;2023-04-01T08:00:55;99706.77;;;14.30;75.67
63194;BME280;49289;51.670;5.624;2023-04-01T08:02:51;99696.17;;;14.16;75.99
63194;BME280;49289;51.670;5.624;2023-04-01T08:04:43;99712.16;;;13.87;76.84
63194;BME280;49289;51.670;5.624;2023-04-01T08:06:31;99703.50;;;14.42;75.86
63194;BME280;49289;51.670;5.624;2023-04-01T08:08:19;99698.41;;;13.90;76.25
63194;BME280;49289;51.670;5.624;2023-04-01T08:10:07;99704.28;;;14.21;76.46
63194;BME280;49289;51.670;5.624;2023-04-01T08:11:57;99710.19;;;14.22;76.22
63194;BME280;49289;51.670;5.624;2023-04-01T08:13:45;99729.16;;;14.16;76.25
63194;BME280;49289;51.670;5.624;2023-04-01T08:15:34;99715.80;;;13.88;77.08
63194;BME280;49289;51.670;5.624;2023-04-01T08:17:22;99723.03;;;14.13;77.25
63194;BME280;49289;51.670;5.624;2023-04-01T08:19:09;99720.36;;;14.01;77.36
63194;BME280;49289;51.670;5.624;2023-04-01T08:20:57;99740.73;;;13.92;77.09
63194;BME280;49289;51.670;5.624;2023-04-01T08:22:47;99743.58;;;14.03;77.76
63194;BME280;49289;51.670;5.624;2023-04-01T08:24:33;99732.04;;;13.59;78.40
63194;BME280;49289;51.670;5.624;2023-04-01T08:26:23;99750.04;;;14.16;77.99
63194;BME280;49289;51.670;5.624;2023-04-01T08:28:09;99738.91;;;14.36;77.03
63194;BME280;49289;51.670;5.624;2023-04-01T08:29:58;99737.11;;;14.25;76.32
63194;BME280;49289;51.670;5.624;2023-04-01T08:31:46;99756.16;;;14.08;77.05
63194;BME280;49289;51.670;5.624;2023-04-01T08:33:32;99763.67;;;14.25;77.47
63194;BME280;49289;51.670;5.624;2023-04-01T08:35:21;99763.27;;;14.19;77.51
63194;BME280;49289;51.670;5.624;2023-04-01T08:37:09;99747.59;;;13.94;77.50
63194;BME280;49289;51.670;5.624;2023-04-01T08:38:57;99763.02;;;14.20;77.67
63194;BME280;49289;51.670;5.624;2023-04-01T08:43:03;99751.78;;;14.24;76.67
63194;BME280;49289;51.670;5.624;2023-04-01T08:45:08;99767.83;;;14.03;78.06
63194;BME280;49289;51.670;5.624;2023-04-01T08:47:03;99770.57;;;14.31;77.28
63194;BME280;49289;51.670;5.624;2023-04-01T08:48:56;99782.05;;;13.57;78.37
63194;BME280;49289;51.670;5.624;2023-04-01T08:50:51;99770.05;;;13.26;79.36
63194;BME280;49289;51.670;5.624;2023-04-01T08:52:41;99772.50;;;14.09;78.87
63194;BME280;49289;51.670;5.624;2023-04-01T08:54:53;99785.25;;;13.99;78.64
63194;BME280;49289;51.670;5.624;2023-04-01T08:56:40;99789.25;;;13.86;78.25
63194;BME280;49289;51.670;5.624;2023-04-01T08:58:42;99794.44;;;14.34;77.69
63194;BME280;49289;51.670;5.624;2023-04-01T09:00:29;99792.31;;;13.95;77.99
63194;BME280;49289;51.670;5.624;2023-04-01T09:02:31;99800.41;;;13.75;78.79
63194;BME280;49289;51.670;5.624;2023-04-01T09:04:25;99801.46;;;13.66;79.40
63194;BME280;49289;51.670;5.624;2023-04-01T09:06:28;99800.34;;;13.76;79.66
63194;BME280;49289;51.670;5.624;2023-04-01T09:08:25;99809.63;;;13.54;80.12
63194;BME280;49289;51.670;5.624;2023-04-01T09:10:28;99814.50;;;14.49;78.93
63194;BME280;49289;51.670;5.624;2023-04-01T09:12:35;99819.89;;;13.58;79.32
63194;BME280;49289;51.670;5.624;2023-04-01T09:14:39;99805.94;;;13.76;79.58
63194;BME280;49289;51.670;5.624;2023-04-01T09:16:35;99822.23;;;14.56;77.83
63194;BME280;49289;51.670;5.624;2023-04-01T09:18:39;99822.41;;;14.56;77.30
63194;BME280;49289;51.670;5.624;2023-04-01T09:20:38;99828.31;;;14.39;76.92
63194;BME280;49289;51.670;5.624;2023-04-01T09:22:47;99810.02;;;13.94;77.37
63194;BME280;49289;51.670;5.624;2023-04-01T09:24:46;99831.28;;;13.99;77.77
63194;BME280;49289;51.670;5.624;2023-04-01T09:26:41;99822.03;;;13.90;78.37
63194;BME280;49289;51.670;5.624;2023-04-01T09:28:33;99849.20;;;14.08;77.89
63194;BME280;49289;51.670;5.624;2023-04-01T09:30:37;99843.70;;;13.43;79.04
63194;BME280;49289;51.670;5.624;2023-04-01T09:32:33;99831.80;;;13.74;79.14
63194;BME280;49289;51.670;5.624;2023-04-01T09:34:37;99840.52;;;14.61;77.90
63194;BME280;49289;51.670;5.624;2023-04-01T09:36:28;99827.89;;;13.91;77.24
63194;BME280;49289;51.670;5.624;2023-04-01T09:38:20;99834.46;;;13.88;77.83
63194;BME280;49289;51.670;5.624;2023-04-01T09:40:23;99831.39;;;14.55;77.02
63194;BME280;49289;51.670;5.624;2023-04-01T09:42:22;99850.56;;;14.25;76.67
63194;BME280;49289;51.670;5.624;2023-04-01T09:44:10;99843.19;;;13.95;77.38
63194;BME280;49289;51.670;5.624;2023-04-01T09:46:16;99853.30;;;14.37;77.15
63194;BME280;49289;51.670;5.624;2023-04-01T09:53:22;99845.59;;;14.45;77.86
63194;BME280;49289;51.670;5.624;2023-04-01T09:55:27;99865.17;;;14.05;78.00
63194;BME280;49289;51.670;5.624;2023-04-01T10:04:17;99869.80;;;14.57;76.91
63194;BME280;49289;51.670;5.624;2023-04-01T10:06:41;99855.61;;;14.77;76.44